Time;durP1;ratioP1;P1;durP2;ratioP2;P2;SDS_P1;SDS_P2;PMS_P1;PMS_P2;Temp;Humidity;BMP_temperature;BMP_pressure;BME280_temperature;BME280_humidity;BME280_pressure;Samples;Min_cycle;Max_cycle;Signal;HPM_P1;HPM_P2
2022/01/14 00:01:40;;;;;;;39.97;19.70;;;5.90;99.90;;;;;;5035445;28;20254;-72
2022/01/14 00:04:06;;;;;;;41.60;20.43;;;5.90;99.90;;;;;;5053766;28;20212;-71
2022/01/14 00:06:31;;;;;;;39.87;20.83;;;5.90;99.90;;;;;;5057470;28;20242;-72
2022/01/14 00:09:05;;;;;;;40.57;20.50;;;5.80;99.90;;;;;;5061745;28;20553;-72
2022/01/14 00:11:32;;;;;;;38.43;18.87;;;5.90;99.90;;;;;;5058189;28;20285;-72
2022/01/14 00:16:26;;;;;;;43.20;19.83;;;5.90;99.90;;;;;;5053006;28;20301;-71
2022/01/14 00:18:51;;;;;;;37.60;20.17;;;5.90;99.90;;;;;;5053524;28;20211;-71
2022/01/14 00:21:17;;;;;;;42.30;20.40;;;5.90;99.90;;;;;;5053555;28;20607;-73
2022/01/14 00:23:44;;;;;;;41.43;19.93;;;5.90;99.90;;;;;;5035382;28;20287;-71
2022/01/14 00:31:51;;;;;;;41.90;19.70;;;5.90;99.90;;;;;;5052850;28;20646;-71
2022/01/14 00:34:17;;;;;;;36.07;19.73;;;6.00;99.90;;;;;;5053224;28;20208;-72
2022/01/14 00:36:44;;;;;;;34.97;19.40;;;6.00;99.90;;;;;;5034989;28;20222;-71
2022/01/14 00:39:11;;;;;;;33.83;19.33;;;6.00;99.90;;;;;;5053421;28;20547;-71
2022/01/14 00:41:37;;;;;;;38.43;18.93;;;6.00;99.90;;;;;;5052570;28;20204;-72
2022/01/14 00:44:10;;;;;;;35.27;18.10;;;6.00;99.90;;;;;;5040990;28;20203;-71
2022/01/14 00:46:37;;;;;;;41.33;19.73;;;6.00;99.90;;;;;;5053792;28;20215;-71
2022/01/14 00:49:02;;;;;;;40.60;19.87;;;6.00;99.90;;;;;;5052835;28;20321;-71
2022/01/14 00:51:28;;;;;;;41.73;19.83;;;6.00;99.90;;;;;;5052234;28;20679;-71
2022/01/14 00:53:53;;;;;;;39.17;21.37;;;6.00;99.90;;;;;;5053285;28;20175;-72
2022/01/14 00:56:25;;;;;;;36.70;19.67;;;6.00;99.90;;;;;;5052685;28;20597;-71
2022/01/14 01:01:38;;;;;;;38.83;19.13;;;6.00;99.90;;;;;;5052073;28;20269;-72
2022/01/14 01:04:04;;;;;;;38.57;20.33;;;6.00;99.90;;;;;;5052519;28;20967;-71
2022/01/14 01:06:30;;;;;;;37.57;19.00;;;6.00;99.90;;;;;;5050475;28;20210;-71
2022/01/14 01:08:57;;;;;;;53.53;24.37;;;6.00;99.90;;;;;;5047851;28;20205;-71
2022/01/14 01:11:32;;;;;;;39.80;20.53;;;6.00;99.90;;;;;;5054373;28;20256;-72
2022/01/14 01:14:12;;;;;;;42.73;20.43;;;6.10;99.90;;;;;;5052249;28;20266;-71
2022/01/14 01:16:39;;;;;;;37.00;20.13;;;6.00;99.90;;;;;;5050450;28;20297;-70
2022/01/14 01:19:05;;;;;;;35.60;18.40;;;6.10;99.90;;;;;;5052221;28;20261;-71
2022/01/14 01:21:31;;;;;;;35.30;18.37;;;6.10;99.90;;;;;;5051757;28;20570;-71
2022/01/14 01:23:56;;;;;;;41.87;19.13;;;6.10;99.90;;;;;;5034844;28;20178;-71
2022/01/14 01:26:29;;;;;;;34.07;19.07;;;6.00;99.90;;;;;;5050320;28;20558;-71
2022/01/14 01:29:02;;;;;;;40.00;19.43;;;6.00;99.90;;;;;;5033705;28;20218;-71
2022/01/14 01:31:38;;;;;;;38.50;18.90;;;6.10;99.90;;;;;;5033467;28;20230;-69
2022/01/14 01:34:30;;;;;;;38.30;19.80;;;6.10;99.90;;;;;;5052043;28;20291;-71
2022/01/14 01:36:57;;;;;;;36.40;19.60;;;6.00;99.90;;;;;;5051380;28;20219;-71
2022/01/14 01:39:26;;;;;;;38.67;19.43;;;6.00;99.90;;;;;;5051779;28;20663;-72
2022/01/14 01:41:54;;;;;;;37.40;18.60;;;6.00;99.90;;;;;;5042070;28;20298;-72
2022/01/14 01:44:22;;;;;;;38.97;19.47;;;6.10;99.90;;;;;;5051656;28;20212;-71
2022/01/14 01:46:48;;;;;;;37.17;19.33;;;6.10;99.90;;;;;;5051732;28;20204;-72
2022/01/14 01:49:16;;;;;;;38.70;20.33;;;6.10;99.90;;;;;;5051487;28;20212;-71
2022/01/14 01:51:44;;;;;;;40.57;21.37;;;6.00;99.90;;;;;;5051530;28;20631;-71
2022/01/14 01:54:10;;;;;;;39.63;19.93;;;6.00;99.90;;;;;;5034326;28;20183;-71
2022/01/14 01:56:36;;;;;;;42.13;20.80;;;6.00;99.90;;;;;;5049739;28;20214;-71
2022/01/14 01:59:02;;;;;;;37.17;19.77;;;6.00;99.90;;;;;;5047357;28;20210;-72
2022/01/14 02:01:28;;;;;;;42.03;21.07;;;6.00;99.90;;;;;;5035437;28;20215;-73
2022/01/14 02:03:54;;;;;;;42.10;20.70;;;6.00;99.90;;;;;;5046343;28;20214;-71
2022/01/14 02:06:21;;;;;;;40.37;20.87;;;6.00;99.90;;;;;;5037147;28;20262;-71
2022/01/14 02:08:47;;;;;;;40.03;21.50;;;6.00;99.90;;;;;;5051066;28;20421;-71
2022/01/14 02:11:13;;;;;;;40.40;20.87;;;6.00;99.90;;;;;;5041279;28;20765;-71
2022/01/14 02:13:39;;;;;;;45.80;19.87;;;6.00;99.90;;;;;;5051128;28;20310;-71
2022/01/14 02:24:22;;;;;;;40.20;21.43;;;6.00;99.90;;;;;;5050950;28;20283;-70
2022/01/14 02:26:46;;;;;;;45.83;20.90;;;6.00;99.90;;;;;;5050433;28;20212;-72
2022/01/14 02:29:12;;;;;;;45.40;20.67;;;5.90;99.90;;;;;;5032843;28;20247;-72
2022/01/14 02:31:37;;;;;;;45.37;22.77;;;6.00;99.90;;;;;;5050235;28;20651;-71
2022/01/14 02:34:03;;;;;;;43.60;22.03;;;6.00;99.90;;;;;;5033144;28;20565;-71
2022/01/14 02:36:31;;;;;;;46.97;22.13;;;6.00;99.90;;;;;;5050536;28;20238;-71
2022/01/14 02:38:57;;;;;;;45.83;21.80;;;5.90;99.90;;;;;;5046468;28;20178;-71
2022/01/14 02:41:22;;;;;;;41.53;22.40;;;5.90;99.90;;;;;;5035689;28;20238;-72
2022/01/14 02:43:48;;;;;;;42.00;23.40;;;6.00;99.90;;;;;;5050813;28;20199;-71
2022/01/14 02:46:15;;;;;;;54.23;23.53;;;5.90;99.90;;;;;;5050456;28;20211;-72
2022/01/14 02:48:41;;;;;;;50.53;23.93;;;5.90;99.90;;;;;;5032686;28;20641;-71
2022/01/14 02:51:12;;;;;;;48.93;22.80;;;6.00;99.90;;;;;;5047548;28;20234;-71
2022/01/14 02:56:06;;;;;;;47.27;23.93;;;6.00;99.90;;;;;;5050513;28;20756;-72
2022/01/14 02:58:34;;;;;;;45.70;23.03;;;5.90;99.90;;;;;;5050238;28;20207;-72
2022/01/14 03:01:03;;;;;;;45.70;23.27;;;5.90;99.90;;;;;;5050339;28;20231;-71
2022/01/14 03:03:33;;;;;;;44.43;22.70;;;5.90;99.90;;;;;;5050546;28;20182;-71
2022/01/14 03:06:01;;;;;;;46.83;24.03;;;5.90;99.90;;;;;;5050764;28;20179;-71
2022/01/14 03:08:26;;;;;;;47.97;23.43;;;5.90;99.90;;;;;;5050214;28;20699;-71
2022/01/14 03:11:14;;;;;;;48.30;24.03;;;5.90;99.90;;;;;;5044880;28;20225;-71
2022/01/14 03:13:40;;;;;;;49.00;23.60;;;5.80;99.90;;;;;;5051067;28;20696;-71
2022/01/14 03:16:06;;;;;;;46.50;23.33;;;5.80;99.90;;;;;;5050196;28;20295;-71
2022/01/14 03:18:43;;;;;;;48.57;23.83;;;5.90;99.90;;;;;;5050416;28;20188;-71
2022/01/14 03:21:11;;;;;;;44.67;23.20;;;5.80;99.90;;;;;;5050679;28;20286;-70
2022/01/14 03:23:47;;;;;;;50.30;24.30;;;5.80;99.90;;;;;;5050253;28;20318;-71
2022/01/14 03:26:14;;;;;;;53.47;24.10;;;5.80;99.90;;;;;;5050148;28;20269;-71
2022/01/14 03:28:40;;;;;;;53.57;24.57;;;5.80;99.90;;;;;;5047973;28;20247;-71
2022/01/14 03:31:05;;;;;;;50.80;25.07;;;5.80;99.90;;;;;;5046577;28;20708;-71
2022/01/14 03:33:31;;;;;;;50.73;25.77;;;5.80;99.90;;;;;;5050141;28;20192;-71
2022/01/14 03:35:56;;;;;;;48.60;23.63;;;5.80;99.90;;;;;;5052447;28;20665;-71
2022/01/14 03:38:21;;;;;;;50.80;23.30;;;5.80;99.90;;;;;;5038927;28;20253;-70
2022/01/14 03:40:47;;;;;;;56.80;24.50;;;5.80;99.90;;;;;;5053577;28;21163;-72
2022/01/14 03:43:13;;;;;;;51.20;24.10;;;5.90;99.90;;;;;;5053982;28;20224;-71
2022/01/14 03:45:39;;;;;;;47.30;22.20;;;5.80;99.90;;;;;;5053395;28;20263;-71
2022/01/14 03:48:06;;;;;;;46.17;23.33;;;5.80;99.90;;;;;;5053955;28;20663;-71
2022/01/14 03:50:32;;;;;;;44.40;22.57;;;5.80;99.90;;;;;;5037305;28;20235;-72
2022/01/14 03:52:58;;;;;;;38.73;21.87;;;5.80;99.90;;;;;;5053772;28;20203;-72
2022/01/14 03:55:23;;;;;;;45.73;22.90;;;5.80;99.90;;;;;;5038420;28;20636;-71
2022/01/14 03:57:49;;;;;;;53.20;22.97;;;5.80;99.90;;;;;;5053281;28;20210;-71
2022/01/14 04:00:15;;;;;;;46.47;22.60;;;5.80;99.90;;;;;;5053657;28;20228;-71
2022/01/14 04:02:41;;;;;;;48.00;22.83;;;5.70;99.90;;;;;;5053267;28;20215;-71
2022/01/14 04:05:07;;;;;;;46.13;21.53;;;5.70;99.90;;;;;;5053408;28;20218;-72
2022/01/14 04:07:33;;;;;;;44.73;23.47;;;5.70;99.90;;;;;;5053175;28;20711;-73
2022/01/14 04:09:58;;;;;;;46.23;23.03;;;5.80;99.90;;;;;;5035167;28;20287;-72
2022/01/14 04:12:43;;;;;;;46.57;22.23;;;5.70;99.90;;;;;;5038777;28;20294;-72
2022/01/14 04:17:54;;;;;;;38.83;21.23;;;5.70;99.90;;;;;;5050730;28;20280;-73
2022/01/14 04:20:19;;;;;;;43.33;21.67;;;5.70;99.90;;;;;;5039907;28;20223;-72
2022/01/14 04:22:44;;;;;;;46.47;22.77;;;5.60;99.90;;;;;;5052854;28;20693;-71
2022/01/14 04:25:10;;;;;;;48.47;23.13;;;5.70;99.90;;;;;;5053049;28;20222;-73
2022/01/14 04:27:35;;;;;;;53.17;23.13;;;5.70;99.90;;;;;;5052650;28;20227;-71
2022/01/14 04:30:01;;;;;;;43.80;21.30;;;5.70;99.90;;;;;;5034896;28;20198;-72
2022/01/14 04:32:26;;;;;;;45.73;22.10;;;5.70;99.90;;;;;;5052982;28;20216;-73
2022/01/14 04:34:52;;;;;;;40.77;21.63;;;5.70;99.90;;;;;;5035369;28;20204;-71
2022/01/14 04:37:17;;;;;;;47.07;22.13;;;5.70;99.90;;;;;;5052940;28;20219;-71
2022/01/14 04:39:43;;;;;;;40.67;20.83;;;5.80;99.90;;;;;;5034406;28;20179;-71
2022/01/14 04:42:08;;;;;;;44.97;23.67;;;5.80;99.90;;;;;;5053132;28;20286;-69
2022/01/14 04:44:34;;;;;;;48.13;21.10;;;5.80;99.90;;;;;;5052581;28;20594;-72
2022/01/14 04:47:13;;;;;;;48.10;22.53;;;5.80;99.90;;;;;;5052211;28;20230;-71
2022/01/14 04:49:38;;;;;;;39.87;21.37;;;5.80;99.90;;;;;;5052232;28;20218;-71
2022/01/14 04:52:06;;;;;;;42.87;22.40;;;5.70;99.90;;;;;;5040264;28;20212;-71
2022/01/14 04:54:31;;;;;;;44.27;21.90;;;5.80;99.90;;;;;;5052577;28;20176;-72
2022/01/14 04:56:57;;;;;;;42.77;21.73;;;5.70;99.90;;;;;;5034806;28;20176;-71
2022/01/14 04:59:23;;;;;;;43.00;21.60;;;5.70;99.90;;;;;;5051872;28;20203;-72
2022/01/14 05:01:49;;;;;;;45.37;21.70;;;5.70;99.90;;;;;;5052027;28;20207;-71
2022/01/14 05:04:16;;;;;;;42.17;21.17;;;5.80;99.90;;;;;;5052549;28;20870;-71
2022/01/14 05:06:45;;;;;;;47.50;22.73;;;5.70;99.90;;;;;;5051870;28;20270;-72
2022/01/14 05:09:20;;;;;;;51.20;24.10;;;5.70;99.90;;;;;;5039431;28;20215;-71
2022/01/14 05:11:52;;;;;;;43.50;21.97;;;5.70;99.90;;;;;;5034167;28;20207;-72
2022/01/14 05:14:18;;;;;;;42.13;22.27;;;5.70;99.90;;;;;;5052249;28;20708;-72
2022/01/14 05:16:44;;;;;;;55.27;23.07;;;5.70;99.90;;;;;;5051661;28;20231;-73
2022/01/14 05:19:09;;;;;;;46.97;22.50;;;5.70;99.90;;;;;;5051613;28;20246;-71
2022/01/14 05:21:34;;;;;;;42.17;21.03;;;5.70;99.90;;;;;;5033792;28;20206;-71
2022/01/14 05:24:00;;;;;;;48.60;23.67;;;5.80;99.90;;;;;;5052619;28;20179;-73
2022/01/14 05:26:25;;;;;;;45.17;22.47;;;5.70;99.90;;;;;;5051545;28;20215;-71
2022/01/14 05:28:51;;;;;;;41.17;21.73;;;5.80;99.90;;;;;;5051640;28;20222;-72
2022/01/14 05:31:16;;;;;;;41.17;21.60;;;5.70;99.90;;;;;;5067275;22;20235;-76
2022/01/14 05:33:46;;;;;;;54.53;23.50;;;5.80;99.90;;;;;;5070574;28;20225;-74
2022/01/14 05:36:11;;;;;;;42.93;22.37;;;5.70;99.90;;;;;;5052831;28;20171;-75
2022/01/14 05:38:37;;;;;;;40.73;21.53;;;5.80;99.90;;;;;;5071422;28;20206;-74
2022/01/14 05:41:02;;;;;;;49.27;22.23;;;5.70;99.90;;;;;;5071290;28;20215;-75
2022/01/14 05:43:28;;;;;;;50.93;24.30;;;5.70;99.90;;;;;;5071398;28;20293;-74
2022/01/14 05:45:53;;;;;;;49.70;23.20;;;5.80;99.90;;;;;;5053783;28;20213;-74
2022/01/14 05:48:19;;;;;;;48.20;22.77;;;5.80;99.90;;;;;;5069424;28;20210;-74
2022/01/14 05:50:44;;;;;;;48.50;22.53;;;5.70;99.90;;;;;;5071390;28;20199;-75
2022/01/14 05:53:10;;;;;;;43.07;22.97;;;5.70;99.90;;;;;;5053552;28;20221;-75
2022/01/14 05:55:36;;;;;;;47.53;24.40;;;5.70;99.90;;;;;;5071405;28;20214;-74
2022/01/14 05:58:02;;;;;;;49.20;24.57;;;5.80;99.90;;;;;;5069144;28;20602;-74
2022/01/14 06:00:27;;;;;;;52.90;25.03;;;5.70;99.90;;;;;;5071135;28;20253;-75
2022/01/14 06:02:53;;;;;;;46.33;23.93;;;5.70;99.90;;;;;;5053840;28;20324;-75
2022/01/14 06:05:19;;;;;;;51.63;24.07;;;5.70;99.90;;;;;;5071282;28;20755;-74
2022/01/14 06:07:45;;;;;;;59.00;28.17;;;5.70;99.90;;;;;;5070645;28;20263;-74
2022/01/14 06:10:11;;;;;;;54.50;25.37;;;5.70;99.90;;;;;;5053216;28;20296;-74
2022/01/14 06:12:37;;;;;;;60.30;27.07;;;5.60;99.90;;;;;;5070970;28;20206;-74
2022/01/14 06:15:04;;;;;;;55.03;26.70;;;5.60;99.90;;;;;;5071490;28;20187;-75
2022/01/14 06:17:29;;;;;;;65.43;28.93;;;5.60;99.90;;;;;;5052996;28;20213;-75
2022/01/14 06:19:55;;;;;;;67.73;28.87;;;5.50;99.90;;;;;;5070702;28;20695;-75
2022/01/14 06:22:20;;;;;;;63.57;28.37;;;5.50;99.90;;;;;;5070762;28;20286;-76
2022/01/14 06:24:46;;;;;;;70.13;32.87;;;5.50;99.90;;;;;;5071254;28;20229;-74
2022/01/14 06:27:12;;;;;;;76.30;30.73;;;5.40;99.90;;;;;;5053195;28;20265;-74
2022/01/14 06:29:37;;;;;;;66.97;29.73;;;5.40;99.90;;;;;;5070824;28;20242;-75
2022/01/14 06:32:03;;;;;;;68.37;29.97;;;5.50;99.90;;;;;;5070564;28;20305;-74
2022/01/14 06:34:28;;;;;;;69.77;30.60;;;5.50;99.90;;;;;;5070948;28;20211;-75
2022/01/14 06:36:54;;;;;;;68.53;30.10;;;5.50;99.90;;;;;;5070874;28;20203;-75
2022/01/14 06:39:19;;;;;;;71.20;30.07;;;5.50;99.90;;;;;;5071471;28;20183;-74
2022/01/14 06:41:45;;;;;;;75.83;29.73;;;5.50;99.90;;;;;;5070462;28;20299;-75
2022/01/14 06:44:10;;;;;;;71.10;30.73;;;5.50;99.90;;;;;;5070856;28;20235;-75
2022/01/14 06:46:36;;;;;;;73.27;31.17;;;5.40;99.90;;;;;;5070357;28;20233;-76
2022/01/14 06:49:01;;;;;;;74.27;28.60;;;5.50;99.90;;;;;;5069142;28;20218;-75
2022/01/14 06:51:27;;;;;;;68.80;29.97;;;5.50;99.90;;;;;;5070332;28;20207;-75
2022/01/14 06:53:53;;;;;;;59.53;28.67;;;5.50;99.90;;;;;;5071292;28;20659;-75
2022/01/14 06:56:18;;;;;;;63.63;27.93;;;5.50;99.90;;;;;;5070443;28;20211;-76
2022/01/14 06:58:44;;;;;;;66.47;27.60;;;5.50;99.90;;;;;;5052412;28;20210;-74
2022/01/14 07:01:11;;;;;;;59.07;27.60;;;5.60;99.90;;;;;;5070305;28;20248;-75
2022/01/14 07:03:36;;;;;;;58.23;27.00;;;5.60;99.90;;;;;;5070480;28;20217;-75
2022/01/14 07:06:02;;;;;;;55.37;26.37;;;5.60;99.90;;;;;;5070963;28;20663;-75
2022/01/14 07:08:27;;;;;;;55.17;25.30;;;5.60;99.90;;;;;;5070195;28;20214;-75
2022/01/14 07:10:53;;;;;;;59.40;25.67;;;5.60;99.90;;;;;;5073856;28;20205;-74
2022/01/14 07:13:19;;;;;;;56.10;25.73;;;5.70;99.90;;;;;;5074475;28;20213;-75
2022/01/14 07:15:44;;;;;;;49.97;23.50;;;5.70;99.90;;;;;;5074417;28;20220;-75
2022/01/14 07:18:10;;;;;;;54.80;25.37;;;5.70;99.90;;;;;;5074558;28;20220;-75
2022/01/14 07:20:37;;;;;;;50.53;24.30;;;5.70;99.90;;;;;;5074213;28;20578;-74
2022/01/14 07:23:03;;;;;;;44.93;22.83;;;5.70;99.90;;;;;;5074220;28;20351;-75
2022/01/14 07:25:28;;;;;;;51.67;23.33;;;5.70;99.90;;;;;;5074096;28;20214;-74
2022/01/14 07:27:54;;;;;;;51.40;23.00;;;5.70;99.90;;;;;;5073551;28;20308;-74
2022/01/14 07:30:20;;;;;;;54.17;22.97;;;5.70;99.90;;;;;;5056711;28;20658;-74
2022/01/14 07:32:45;;;;;;;48.80;22.93;;;5.70;99.90;;;;;;5075032;28;20210;-75
2022/01/14 07:35:12;;;;;;;57.57;24.37;;;5.70;99.90;;;;;;5074109;28;20275;-74
2022/01/14 07:37:38;;;;;;;50.37;23.90;;;5.70;99.90;;;;;;5073701;28;20290;-75
2022/01/14 07:40:05;;;;;;;50.30;22.30;;;5.70;99.90;;;;;;5073851;28;20714;-75
2022/01/14 07:42:30;;;;;;;48.47;21.07;;;5.70;99.90;;;;;;5073548;28;20202;-74
2022/01/14 07:44:56;;;;;;;48.63;22.67;;;5.70;99.90;;;;;;5074394;28;20681;-74
2022/01/14 07:47:21;;;;;;;46.57;21.80;;;5.70;99.90;;;;;;5073439;28;20207;-73
2022/01/14 07:49:47;;;;;;;47.57;22.03;;;5.70;99.90;;;;;;5073933;28;20206;-75
2022/01/14 07:52:12;;;;;;;44.90;20.10;;;5.80;99.90;;;;;;5055606;28;20271;-75
2022/01/14 07:54:38;;;;;;;46.70;23.03;;;5.80;99.90;;;;;;5073697;28;20193;-75
2022/01/14 07:57:04;;;;;;;40.00;20.27;;;5.80;99.90;;;;;;5073941;28;20186;-75
2022/01/14 07:59:32;;;;;;;42.23;21.00;;;5.80;99.90;;;;;;5073693;28;20256;-75
2022/01/14 08:02:00;;;;;;;38.47;20.50;;;5.80;99.90;;;;;;5072098;28;20293;-75
2022/01/14 08:04:26;;;;;;;44.00;20.57;;;5.80;99.90;;;;;;5074710;28;20219;-75
2022/01/14 08:06:56;;;;;;;42.60;20.83;;;5.80;99.90;;;;;;5072102;28;20558;-76
2022/01/14 08:09:23;;;;;;;41.07;20.17;;;5.80;99.90;;;;;;5055690;28;20235;-75
2022/01/14 08:11:49;;;;;;;43.97;21.07;;;5.80;99.90;;;;;;5073106;28;20260;-76
2022/01/14 08:14:15;;;;;;;36.63;19.40;;;5.80;99.90;;;;;;5073659;28;20214;-75
2022/01/14 08:16:41;;;;;;;39.63;20.00;;;5.80;99.90;;;;;;5072969;28;20211;-76
2022/01/14 08:19:07;;;;;;;41.13;20.73;;;5.80;99.90;;;;;;5073009;28;20334;-75
2022/01/14 08:21:32;;;;;;;46.27;20.67;;;5.80;99.90;;;;;;5072340;28;20202;-76
2022/01/14 08:23:58;;;;;;;39.30;20.27;;;5.70;99.90;;;;;;5073725;28;20167;-75
2022/01/14 08:26:24;;;;;;;46.03;19.10;;;5.80;99.90;;;;;;5072888;28;20313;-75
2022/01/14 08:28:49;;;;;;;42.20;19.30;;;5.80;99.90;;;;;;5072996;28;20225;-76
2022/01/14 08:31:16;;;;;;;41.63;18.77;;;5.80;99.90;;;;;;5053974;28;20218;-75
2022/01/14 08:33:46;;;;;;;41.57;20.87;;;5.80;99.90;;;;;;5073131;28;20194;-76
2022/01/14 08:36:12;;;;;;;36.53;18.83;;;5.80;99.90;;;;;;5073483;28;20179;-75
2022/01/14 08:38:38;;;;;;;44.00;21.13;;;5.80;99.90;;;;;;5072667;28;20207;-76
2022/01/14 08:41:04;;;;;;;38.00;18.53;;;5.80;99.90;;;;;;5073322;28;20213;-75
2022/01/14 08:43:30;;;;;;;45.10;20.80;;;5.80;99.90;;;;;;5055258;28;20214;-75
2022/01/14 08:46:01;;;;;;;38.67;18.80;;;5.80;99.90;;;;;;5073143;28;20211;-75
2022/01/14 08:48:27;;;;;;;50.37;22.00;;;5.80;99.90;;;;;;5072450;28;20214;-74
2022/01/14 08:50:53;;;;;;;46.07;20.97;;;5.80;99.90;;;;;;5073416;28;20173;-75
2022/01/14 08:53:18;;;;;;;50.70;21.73;;;5.80;99.90;;;;;;5072706;28;20211;-75
2022/01/14 08:55:44;;;;;;;39.77;20.23;;;5.80;99.90;;;;;;5072325;28;20191;-75
2022/01/14 08:58:09;;;;;;;47.07;21.47;;;5.80;99.90;;;;;;5072293;28;20217;-75
2022/01/14 09:00:35;;;;;;;43.57;20.60;;;5.80;99.90;;;;;;5054595;28;20265;-75
2022/01/14 09:03:03;;;;;;;46.80;21.10;;;5.80;99.90;;;;;;5072957;28;20210;-75
2022/01/14 09:05:29;;;;;;;46.03;21.67;;;5.80;99.90;;;;;;5072299;28;20290;-75
2022/01/14 09:07:55;;;;;;;47.23;20.73;;;5.80;99.90;;;;;;5054263;28;20206;-75
2022/01/14 09:10:21;;;;;;;42.33;20.27;;;5.80;99.90;;;;;;5072009;28;20267;-76
2022/01/14 09:12:48;;;;;;;38.03;19.77;;;5.80;99.90;;;;;;5072289;28;20284;-75
2022/01/14 09:15:14;;;;;;;40.17;18.97;;;5.80;99.90;;;;;;5072873;28;20531;-75
2022/01/14 09:17:40;;;;;;;46.23;20.60;;;5.80;99.90;;;;;;5072092;28;20271;-75
2022/01/14 09:20:07;;;;;;;43.83;20.13;;;5.90;99.90;;;;;;5054466;28;20214;-75
2022/01/14 09:22:35;;;;;;;39.20;18.77;;;5.90;99.90;;;;;;5071879;28;20226;-76
2022/01/14 09:25:01;;;;;;;46.37;19.77;;;5.90;99.90;;;;;;5072437;28;20296;-75
2022/01/14 09:27:28;;;;;;;45.20;19.40;;;5.90;99.90;;;;;;5071470;28;20253;-76
2022/01/14 09:29:54;;;;;;;43.20;19.53;;;6.00;99.90;;;;;;5072359;28;20174;-76
2022/01/14 09:32:20;;;;;;;38.83;18.47;;;6.00;99.90;;;;;;5071050;28;20233;-76
2022/01/14 09:34:46;;;;;;;38.87;18.70;;;6.00;99.90;;;;;;5053612;28;20207;-76
2022/01/14 09:37:12;;;;;;;38.67;16.90;;;6.10;99.90;;;;;;5053734;28;20219;-75
2022/01/14 09:39:39;;;;;;;36.23;17.53;;;6.00;99.90;;;;;;5071462;28;20183;-75
2022/01/14 09:42:06;;;;;;;38.43;16.70;;;6.10;99.90;;;;;;5054121;28;20195;-75
2022/01/14 09:44:31;;;;;;;37.53;16.30;;;6.10;99.90;;;;;;5053847;28;20263;-74
2022/01/14 09:46:57;;;;;;;36.17;16.17;;;6.10;99.90;;;;;;5071295;28;20209;-76
2022/01/14 09:49:22;;;;;;;52.67;27.77;;;6.10;99.90;;;;;;5071176;28;20247;-73
2022/01/14 09:51:48;;;;;;;37.40;17.47;;;6.00;99.90;;;;;;5071236;28;20242;-75
2022/01/14 09:54:22;;;;;;;32.00;16.33;;;6.10;99.90;;;;;;5088828;28;20605;-74
2022/01/14 09:56:48;;;;;;;34.63;16.07;;;6.10;99.90;;;;;;5068584;27;20222;-75
2022/01/14 09:59:13;;;;;;;35.57;16.63;;;6.10;99.90;;;;;;5068015;28;20217;-74
2022/01/14 10:01:44;;;;;;;33.00;15.00;;;6.20;99.90;;;;;;5060636;28;20223;-74
2022/01/14 10:04:15;;;;;;;32.90;14.80;;;6.20;99.90;;;;;;5054202;28;20222;-74
2022/01/14 10:06:43;;;;;;;32.37;15.43;;;6.20;99.90;;;;;;5066221;27;20205;-74
2022/01/14 10:09:12;;;;;;;26.50;14.30;;;6.20;99.90;;;;;;5068255;28;20194;-75
2022/01/14 10:11:42;;;;;;;32.67;14.43;;;6.20;99.90;;;;;;5067635;27;20307;-74
2022/01/14 10:14:19;;;;;;;27.83;13.97;;;6.30;99.90;;;;;;5067770;27;20722;-75
2022/01/14 10:16:56;;;;;;;33.53;15.57;;;6.30;99.90;;;;;;5067420;27;20203;-75
2022/01/14 10:19:43;;;;;;;34.57;13.17;;;6.40;99.90;;;;;;5064301;28;20214;-75
2022/01/14 10:22:30;;;;;;;22.07;12.07;;;6.40;99.90;;;;;;5067348;27;20211;-75
2022/01/14 10:25:05;;;;;;;32.33;13.47;;;6.50;99.90;;;;;;5066943;28;20559;-75
2022/01/14 10:27:34;;;;;;;25.17;13.03;;;6.50;99.90;;;;;;5067087;27;20191;-75
2022/01/14 10:30:15;;;;;;;25.47;12.47;;;6.50;99.90;;;;;;5067947;28;20174;-75
2022/01/14 10:32:42;;;;;;;26.63;13.60;;;6.50;99.90;;;;;;5067015;27;20218;-75
2022/01/14 10:35:11;;;;;;;24.93;12.13;;;6.60;99.90;;;;;;5067596;27;20203;-75
2022/01/14 10:37:37;;;;;;;28.73;12.73;;;6.60;99.90;;;;;;5067061;27;20234;-74
2022/01/14 10:40:16;;;;;;;27.43;11.80;;;6.60;99.90;;;;;;5067496;27;20691;-76
2022/01/14 10:42:42;;;;;;;23.33;11.50;;;6.60;99.90;;;;;;5066968;27;20198;-75
2022/01/14 10:45:23;;;;;;;24.60;12.57;;;6.60;99.90;;;;;;5067736;28;20660;-75
2022/01/14 10:48:16;;;;;;;23.90;11.07;;;6.60;99.90;;;;;;5019785;28;20262;-75
2022/01/14 10:50:47;;;;;;;22.33;10.83;;;6.60;99.90;;;;;;5027125;28;20204;-74
2022/01/14 10:53:37;;;;;;;22.57;12.07;;;6.60;99.90;;;;;;5027194;28;20286;-75
2022/01/14 10:56:06;;;;;;;24.47;11.40;;;6.60;99.90;;;;;;5027300;28;20219;-75
2022/01/14 10:58:39;;;;;;;19.43;10.77;;;6.70;99.90;;;;;;5026486;28;20216;-76
2022/01/14 11:01:08;;;;;;;23.67;9.90;;;6.70;99.90;;;;;;5036423;28;20211;-75
2022/01/14 11:03:40;;;;;;;22.77;11.10;;;6.70;99.90;;;;;;5062804;28;20255;-74
2022/01/14 11:06:25;;;;;;;19.50;10.30;;;6.70;99.90;;;;;;5013998;28;20180;-75
2022/01/14 11:09:00;;;;;;;21.03;10.17;;;6.70;99.90;;;;;;5013809;28;20222;-74
2022/01/14 11:11:28;;;;;;;20.90;10.30;;;6.80;99.90;;;;;;5012132;28;20270;-75
2022/01/14 11:13:54;;;;;;;24.30;9.03;;;6.80;99.90;;;;;;5013775;28;20244;-75
2022/01/14 11:16:21;;;;;;;20.43;10.17;;;6.80;99.90;;;;;;5012302;28;20240;-75
2022/01/14 11:18:47;;;;;;;20.17;9.20;;;6.90;99.90;;;;;;5012715;28;20315;-74
2022/01/14 11:23:57;;;;;;;19.27;9.30;;;6.90;99.90;;;;;;5053907;28;20221;-75
2022/01/14 11:26:29;;;;;;;19.47;9.27;;;6.90;99.90;;;;;;5053498;28;20747;-75
2022/01/14 11:29:01;;;;;;;18.87;9.63;;;6.90;99.90;;;;;;5053111;28;20261;-75
2022/01/14 11:33:58;;;;;;;20.37;9.90;;;6.90;99.90;;;;;;5006126;28;20248;-71
2022/01/14 11:36:25;;;;;;;18.63;8.67;;;7.00;99.90;;;;;;4976114;28;20185;-71
2022/01/14 11:38:51;;;;;;;25.53;9.97;;;7.00;99.90;;;;;;4993363;28;20209;-71
2022/01/14 11:41:41;;;;;;;19.27;10.03;;;6.90;99.90;;;;;;4993562;28;20206;-71
2022/01/14 11:44:09;;;;;;;21.33;9.57;;;6.90;99.90;;;;;;4973908;28;20219;-71
2022/01/14 11:46:37;;;;;;;17.27;9.23;;;7.00;99.90;;;;;;4973825;28;20225;-72
2022/01/14 11:49:32;;;;;;;24.83;9.30;;;7.00;99.90;;;;;;4973733;28;20683;-72
2022/01/14 11:52:00;;;;;;;22.40;8.90;;;7.00;99.90;;;;;;4956371;28;20234;-72
2022/01/14 11:54:37;;;;;;;15.23;7.43;;;7.10;99.90;;;;;;4974259;28;20543;-72
2022/01/14 11:57:03;;;;;;;16.63;8.73;;;7.10;99.90;;;;;;4974429;28;20202;-72
2022/01/14 11:59:29;;;;;;;17.30;9.37;;;7.10;99.90;;;;;;4969630;28;20207;-72
2022/01/14 12:01:55;;;;;;;17.90;7.67;;;7.10;99.90;;;;;;4985601;28;20213;-72
2022/01/14 12:04:22;;;;;;;18.97;8.83;;;7.10;99.90;;;;;;4975456;28;20225;-71
2022/01/14 12:06:50;;;;;;;21.70;9.90;;;7.10;99.90;;;;;;4993513;28;20214;-72
2022/01/14 12:09:21;;;;;;;22.67;10.27;;;7.10;99.90;;;;;;4994497;28;20586;-72
2022/01/14 12:12:22;;;;;;;17.17;7.80;;;7.10;99.90;;;;;;4975203;28;20206;-72
2022/01/14 12:14:56;;;;;;;19.63;8.77;;;7.10;99.90;;;;;;4990355;28;20213;-72
2022/01/14 12:17:33;;;;;;;21.53;9.53;;;7.00;99.90;;;;;;4991627;28;20293;-73
2022/01/14 12:20:07;;;;;;;24.37;9.10;;;7.10;99.90;;;;;;4997937;28;20224;-72
2022/01/14 12:22:33;;;;;;;21.00;9.77;;;7.10;99.90;;;;;;5000024;28;20217;-72
2022/01/14 12:24:59;;;;;;;21.80;10.00;;;7.10;99.90;;;;;;4977722;28;20213;-73
2022/01/14 12:27:26;;;;;;;16.10;8.50;;;7.10;99.90;;;;;;4992852;28;20555;-73
2022/01/14 12:30:05;;;;;;;19.03;8.27;;;7.10;99.90;;;;;;4992683;28;20212;-72
2022/01/14 12:32:30;;;;;;;16.07;8.83;;;7.10;99.90;;;;;;4991957;28;20460;-73
2022/01/14 12:34:56;;;;;;;22.57;10.00;;;7.10;99.90;;;;;;4975235;28;20213;-72
2022/01/14 12:37:28;;;;;;;24.03;9.13;;;7.10;99.90;;;;;;4975168;28;20213;-71
2022/01/14 12:39:56;;;;;;;12.73;7.70;;;7.10;99.90;;;;;;4992229;28;20288;-71
2022/01/14 12:42:23;;;;;;;15.47;8.10;;;7.10;99.90;;;;;;4992423;28;20596;-72
2022/01/14 12:44:52;;;;;;;20.27;9.33;;;7.20;99.90;;;;;;4971930;28;20218;-71
2022/01/14 12:47:24;;;;;;;19.50;8.40;;;7.20;99.90;;;;;;4988324;28;20218;-72
2022/01/14 12:49:50;;;;;;;16.80;9.37;;;7.10;99.90;;;;;;4992116;28;20209;-71
2022/01/14 12:52:29;;;;;;;17.13;9.30;;;7.10;99.90;;;;;;4991823;28;20788;-72
2022/01/14 12:54:55;;;;;;;22.87;10.27;;;7.10;99.90;;;;;;4992420;28;20210;-72
2022/01/14 12:57:24;;;;;;;17.90;9.50;;;7.10;99.90;;;;;;4992413;28;20196;-72
2022/01/14 12:59:52;;;;;;;14.57;8.87;;;7.10;99.90;;;;;;4991970;28;20284;-72
2022/01/14 13:02:18;;;;;;;15.77;9.13;;;7.10;99.90;;;;;;4974263;28;20694;-72
2022/01/14 13:04:44;;;;;;;19.70;9.50;;;7.10;99.90;;;;;;4991971;28;20209;-72
2022/01/14 13:07:14;;;;;;;17.40;10.50;;;7.10;99.90;;;;;;4968743;28;20297;-72
2022/01/14 13:09:43;;;;;;;18.77;10.10;;;7.10;99.90;;;;;;4955000;28;20187;-73
2022/01/14 13:12:14;;;;;;;20.73;10.83;;;7.00;99.90;;;;;;4972960;28;20662;-72